New River, Tennessee
Current Conditions -  °F | °C
As of 10:53 AM on Tuesday 21 Oct 2014 (Local Time) from KOQT Reporting Station
Clear Clear  
Wind Chill: 62°   Ceiling: Unl
Heat Index: 62°   Visibility: 10mi
Dew Point: 51°   Wind: 3mph
Humidity: 67%   Direction: 200°SSW
Pressure: 30.05"   Gusts: NA
Location:  36.4337°N, 84.5593°W
Report Text: KOQT 211453Z AUTO 20003KT 10SM CLR 17/11 A3005 RMK AO2 SLP171 T01670106 51011
Loading
Personal Weather Stations






























Interactive Weather Map
Tropical Storm Tracking
New forecast layout! Learn more

10-Day Weather Forecast

Advertisements
Track Severe Weather on mobile